Yellowstone National Park, Wyoming
Current Conditions -  °F | °C
As of 6:15 AM on Tuesday 21 Oct 2014 (Local Time) from KWYS Reporting Station
Light Rain Light Rain  
Wind Chill: 29°   Ceiling: 4300
Heat Index: 34°   Visibility: 7mi
Dew Point: 32°   Wind: 6mph
Humidity: 93%   Direction: 40°NE
Pressure: 29.93"   Gusts: NA
Location:  44.5747°N, 110.518°W
Report Text: KWYS 211215Z AUTO 04005KT 7SM -RA OVC043 01/00 A2993 RMK AO2
Loading
Personal Weather Stations






























Interactive Weather Map New forecast layout! Learn more

10-Day Weather Forecast

Advertisements
Track Severe Weather on mobile